sensor_id;sensor_type;location;lat;lon;timestamp;temperature;humidity
14000;DHT22;7075;53.574;10.054;2022-09-30T00:01:39;10.70;99.90
14000;DHT22;7075;53.574;10.054;2022-09-30T00:04:05;10.70;99.90
14000;DHT22;7075;53.574;10.054;2022-09-30T00:06:32;10.70;99.90
14000;DHT22;7075;53.574;10.054;2022-09-30T00:08:59;10.60;99.90
14000;DHT22;7075;53.574;10.054;2022-09-30T00:11:28;10.60;99.90
14000;DHT22;7075;53.574;10.054;2022-09-30T00:13:55;10.60;99.90
14000;DHT22;7075;53.574;10.054;2022-09-30T00:16:24;10.50;99.90
14000;DHT22;7075;53.574;10.054;2022-09-30T00:18:50;10.50;99.90
14000;DHT22;7075;53.574;10.054;2022-09-30T00:21:17;10.40;99.90
14000;DHT22;7075;53.574;10.054;2022-09-30T00:23:43;10.50;99.90
14000;DHT22;7075;53.574;10.054;2022-09-30T00:26:15;10.50;99.90
14000;DHT22;7075;53.574;10.054;2022-09-30T00:28:42;10.50;99.90
14000;DHT22;7075;53.574;10.054;2022-09-30T00:31:11;10.50;99.90
14000;DHT22;7075;53.574;10.054;2022-09-30T00:33:37;10.40;99.90
14000;DHT22;7075;53.574;10.054;2022-09-30T00:36:03;10.40;99.90
14000;DHT22;7075;53.574;10.054;2022-09-30T00:38:29;10.40;99.90
14000;DHT22;7075;53.574;10.054;2022-09-30T00:40:55;10.40;99.90
14000;DHT22;7075;53.574;10.054;2022-09-30T00:43:56;10.40;99.90
14000;DHT22;7075;53.574;10.054;2022-09-30T00:46:39;10.40;99.90
14000;DHT22;7075;53.574;10.054;2022-09-30T00:49:11;10.40;99.90
14000;DHT22;7075;53.574;10.054;2022-09-30T00:51:41;10.50;99.90
14000;DHT22;7075;53.574;10.054;2022-09-30T00:54:23;10.50;99.90
14000;DHT22;7075;53.574;10.054;2022-09-30T00:56:56;10.60;99.90
14000;DHT22;7075;53.574;10.054;2022-09-30T00:59:28;10.60;99.90
14000;DHT22;7075;53.574;10.054;2022-09-30T01:01:55;10.70;99.90
14000;DHT22;7075;53.574;10.054;2022-09-30T01:04:23;10.70;99.90
14000;DHT22;7075;53.574;10.054;2022-09-30T01:06:49;10.70;99.90
14000;DHT22;7075;53.574;10.054;2022-09-30T01:09:15;10.70;99.90
14000;DHT22;7075;53.574;10.054;2022-09-30T01:11:40;10.60;99.90
14000;DHT22;7075;53.574;10.054;2022-09-30T01:17:05;10.60;99.90
14000;DHT22;7075;53.574;10.054;2022-09-30T01:31:13;10.50;99.90
14000;DHT22;7075;53.574;10.054;2022-09-30T01:33:56;10.40;99.90
14000;DHT22;7075;53.574;10.054;2022-09-30T01:36:38;10.40;99.90
14000;DHT22;7075;53.574;10.054;2022-09-30T01:39:42;10.40;99.90
14000;DHT22;7075;53.574;10.054;2022-09-30T01:47:53;10.30;99.90
14000;DHT22;7075;53.574;10.054;2022-09-30T01:50:36;10.30;99.90
14000;DHT22;7075;53.574;10.054;2022-09-30T01:56:29;10.30;99.90
14000;DHT22;7075;53.574;10.054;2022-09-30T01:59:03;10.20;99.90
14000;DHT22;7075;53.574;10.054;2022-09-30T02:01:43;10.20;99.90
14000;DHT22;7075;53.574;10.054;2022-09-30T02:04:19;10.20;99.90
14000;DHT22;7075;53.574;10.054;2022-09-30T02:06:51;10.10;99.90
14000;DHT22;7075;53.574;10.054;2022-09-30T02:09:35;10.10;99.90
14000;DHT22;7075;53.574;10.054;2022-09-30T02:12:06;10.10;99.90
14000;DHT22;7075;53.574;10.054;2022-09-30T02:15:38;10.10;99.90
14000;DHT22;7075;53.574;10.054;2022-09-30T02:17:51;10.00;99.90
14000;DHT22;7075;53.574;10.054;2022-09-30T02:20:24;10.00;99.90
14000;DHT22;7075;53.574;10.054;2022-09-30T02:23:13;10.10;99.90
14000;DHT22;7075;53.574;10.054;2022-09-30T02:25:44;10.10;99.90
14000;DHT22;7075;53.574;10.054;2022-09-30T02:28:16;10.10;99.90
14000;DHT22;7075;53.574;10.054;2022-09-30T02:30:46;10.10;99.90
14000;DHT22;7075;53.574;10.054;2022-09-30T02:33:24;10.20;99.90
14000;DHT22;7075;53.574;10.054;2022-09-30T02:35:56;10.20;99.90
14000;DHT22;7075;53.574;10.054;2022-09-30T02:38:30;10.20;99.90
14000;DHT22;7075;53.574;10.054;2022-09-30T02:41:07;10.20;99.90
14000;DHT22;7075;53.574;10.054;2022-09-30T02:43:35;10.20;99.90
14000;DHT22;7075;53.574;10.054;2022-09-30T02:54:17;10.30;99.90
14000;DHT22;7075;53.574;10.054;2022-09-30T02:56:54;10.30;99.90
14000;DHT22;7075;53.574;10.054;2022-09-30T02:59:23;10.30;99.90
14000;DHT22;7075;53.574;10.054;2022-09-30T03:01:49;10.30;99.90
14000;DHT22;7075;53.574;10.054;2022-09-30T03:04:34;10.30;99.90
14000;DHT22;7075;53.574;10.054;2022-09-30T03:07:02;10.20;99.90
14000;DHT22;7075;53.574;10.054;2022-09-30T03:09:28;10.20;99.90
14000;DHT22;7075;53.574;10.054;2022-09-30T03:12:00;10.20;99.90
14000;DHT22;7075;53.574;10.054;2022-09-30T03:14:32;10.20;99.90
14000;DHT22;7075;53.574;10.054;2022-09-30T03:17:25;10.10;99.90
14000;DHT22;7075;53.574;10.054;2022-09-30T03:25:32;10.00;99.90
14000;DHT22;7075;53.574;10.054;2022-09-30T03:28:22;10.00;99.90
14000;DHT22;7075;53.574;10.054;2022-09-30T03:31:02;10.10;99.90
14000;DHT22;7075;53.574;10.054;2022-09-30T03:39:02;9.90;99.90
14000;DHT22;7075;53.574;10.054;2022-09-30T03:47:10;9.90;99.90
14000;DHT22;7075;53.574;10.054;2022-09-30T03:49:45;9.90;99.90
14000;DHT22;7075;53.574;10.054;2022-09-30T03:52:12;9.90;99.90
14000;DHT22;7075;53.574;10.054;2022-09-30T03:54:53;9.90;99.90
14000;DHT22;7075;53.574;10.054;2022-09-30T03:57:20;9.90;99.90
14000;DHT22;7075;53.574;10.054;2022-09-30T03:59:46;9.80;99.90
14000;DHT22;7075;53.574;10.054;2022-09-30T04:02:12;9.90;99.90
14000;DHT22;7075;53.574;10.054;2022-09-30T04:04:41;9.90;99.90
14000;DHT22;7075;53.574;10.054;2022-09-30T04:07:10;9.90;99.90
14000;DHT22;7075;53.574;10.054;2022-09-30T04:09:37;10.00;99.90
14000;DHT22;7075;53.574;10.054;2022-09-30T04:12:03;9.90;99.90
14000;DHT22;7075;53.574;10.054;2022-09-30T04:14:30;10.00;99.90
14000;DHT22;7075;53.574;10.054;2022-09-30T04:16:55;10.00;99.90
14000;DHT22;7075;53.574;10.054;2022-09-30T04:19:21;10.00;99.90
14000;DHT22;7075;53.574;10.054;2022-09-30T04:21:46;10.10;99.90
14000;DHT22;7075;53.574;10.054;2022-09-30T04:24:12;10.10;99.90
14000;DHT22;7075;53.574;10.054;2022-09-30T04:26:37;10.10;99.90
14000;DHT22;7075;53.574;10.054;2022-09-30T04:29:03;10.10;99.90
14000;DHT22;7075;53.574;10.054;2022-09-30T04:31:29;10.10;99.90
14000;DHT22;7075;53.574;10.054;2022-09-30T04:33:57;10.20;99.90
14000;DHT22;7075;53.574;10.054;2022-09-30T04:36:23;10.10;99.90
14000;DHT22;7075;53.574;10.054;2022-09-30T04:38:49;10.20;99.90
14000;DHT22;7075;53.574;10.054;2022-09-30T04:41:15;10.20;99.90
14000;DHT22;7075;53.574;10.054;2022-09-30T04:43:42;10.20;99.90
14000;DHT22;7075;53.574;10.054;2022-09-30T04:46:15;10.10;99.90
14000;DHT22;7075;53.574;10.054;2022-09-30T04:48:41;10.20;99.90
14000;DHT22;7075;53.574;10.054;2022-09-30T04:51:13;10.10;99.90
14000;DHT22;7075;53.574;10.054;2022-09-30T04:53:40;10.10;99.90
14000;DHT22;7075;53.574;10.054;2022-09-30T04:56:06;10.10;99.90
14000;DHT22;7075;53.574;10.054;2022-09-30T04:58:33;10.00;99.90
14000;DHT22;7075;53.574;10.054;2022-09-30T05:03:31;9.70;99.90
14000;DHT22;7075;53.574;10.054;2022-09-30T05:05:58;9.70;99.90
14000;DHT22;7075;53.574;10.054;2022-09-30T05:08:23;9.70;99.90
14000;DHT22;7075;53.574;10.054;2022-09-30T05:10:57;9.70;99.90
14000;DHT22;7075;53.574;10.054;2022-09-30T05:13:24;9.60;99.90
14000;DHT22;7075;53.574;10.054;2022-09-30T05:15:50;9.60;99.90
14000;DHT22;7075;53.574;10.054;2022-09-30T05:18:19;9.60;99.90
14000;DHT22;7075;53.574;10.054;2022-09-30T05:20:48;9.60;99.90
14000;DHT22;7075;53.574;10.054;2022-09-30T05:23:14;9.60;99.90
14000;DHT22;7075;53.574;10.054;2022-09-30T05:25:41;9.50;99.90
14000;DHT22;7075;53.574;10.054;2022-09-30T05:28:06;9.50;99.90
14000;DHT22;7075;53.574;10.054;2022-09-30T05:30:33;9.60;99.90
14000;DHT22;7075;53.574;10.054;2022-09-30T05:32:58;9.60;99.90
14000;DHT22;7075;53.574;10.054;2022-09-30T05:35:24;9.60;99.90
14000;DHT22;7075;53.574;10.054;2022-09-30T05:37:50;9.70;99.90
14000;DHT22;7075;53.574;10.054;2022-09-30T05:40:15;9.70;99.90
14000;DHT22;7075;53.574;10.054;2022-09-30T05:42:41;9.70;99.90
14000;DHT22;7075;53.574;10.054;2022-09-30T05:45:07;9.60;99.90
14000;DHT22;7075;53.574;10.054;2022-09-30T05:47:33;9.60;99.90
14000;DHT22;7075;53.574;10.054;2022-09-30T05:49:59;9.60;99.90
14000;DHT22;7075;53.574;10.054;2022-09-30T05:52:25;9.70;99.90
14000;DHT22;7075;53.574;10.054;2022-09-30T05:54:50;9.70;99.90
14000;DHT22;7075;53.574;10.054;2022-09-30T05:57:16;9.70;99.90
14000;DHT22;7075;53.574;10.054;2022-09-30T05:59:42;9.70;99.90
14000;DHT22;7075;53.574;10.054;2022-09-30T06:02:09;9.70;99.90
14000;DHT22;7075;53.574;10.054;2022-09-30T06:04:35;9.70;99.90
14000;DHT22;7075;53.574;10.054;2022-09-30T06:07:00;9.70;99.90
14000;DHT22;7075;53.574;10.054;2022-09-30T06:09:26;9.70;99.90
14000;DHT22;7075;53.574;10.054;2022-09-30T06:11:52;9.70;99.90
14000;DHT22;7075;53.574;10.054;2022-09-30T06:14:22;9.70;99.90
14000;DHT22;7075;53.574;10.054;2022-09-30T06:16:48;9.60;99.90
14000;DHT22;7075;53.574;10.054;2022-09-30T06:19:14;9.60;99.90
14000;DHT22;7075;53.574;10.054;2022-09-30T06:21:39;9.60;99.90
14000;DHT22;7075;53.574;10.054;2022-09-30T06:24:05;9.60;99.90
14000;DHT22;7075;53.574;10.054;2022-09-30T06:26:33;9.70;99.90
14000;DHT22;7075;53.574;10.054;2022-09-30T06:28:58;9.70;99.90
14000;DHT22;7075;53.574;10.054;2022-09-30T06:31:24;9.70;99.90
14000;DHT22;7075;53.574;10.054;2022-09-30T06:33:51;9.70;99.90
14000;DHT22;7075;53.574;10.054;2022-09-30T06:36:17;9.70;99.90
14000;DHT22;7075;53.574;10.054;2022-09-30T06:38:43;9.70;99.90
14000;DHT22;7075;53.574;10.054;2022-09-30T06:41:09;9.70;99.90
14000;DHT22;7075;53.574;10.054;2022-09-30T06:43:35;9.70;99.90
14000;DHT22;7075;53.574;10.054;2022-09-30T06:46:01;9.70;99.90
14000;DHT22;7075;53.574;10.054;2022-09-30T06:48:26;9.80;99.90
14000;DHT22;7075;53.574;10.054;2022-09-30T06:50:57;9.90;99.90
14000;DHT22;7075;53.574;10.054;2022-09-30T06:53:22;10.00;99.90
14000;DHT22;7075;53.574;10.054;2022-09-30T06:55:54;10.00;99.90
14000;DHT22;7075;53.574;10.054;2022-09-30T06:58:20;10.00;99.90
14000;DHT22;7075;53.574;10.054;2022-09-30T07:00:58;9.90;99.90
14000;DHT22;7075;53.574;10.054;2022-09-30T07:03:27;10.00;99.90
14000;DHT22;7075;53.574;10.054;2022-09-30T07:06:02;10.00;99.90
14000;DHT22;7075;53.574;10.054;2022-09-30T07:08:30;10.00;99.90
14000;DHT22;7075;53.574;10.054;2022-09-30T07:11:01;10.00;99.90
14000;DHT22;7075;53.574;10.054;2022-09-30T07:13:29;10.00;99.90
14000;DHT22;7075;53.574;10.054;2022-09-30T07:15:55;10.00;99.90
14000;DHT22;7075;53.574;10.054;2022-09-30T07:18:23;10.00;99.90
14000;DHT22;7075;53.574;10.054;2022-09-30T07:20:52;10.00;99.90
14000;DHT22;7075;53.574;10.054;2022-09-30T07:23:19;10.00;99.90
14000;DHT22;7075;53.574;10.054;2022-09-30T07:26:00;9.90;99.90
14000;DHT22;7075;53.574;10.054;2022-09-30T07:28:33;10.00;99.90
14000;DHT22;7075;53.574;10.054;2022-09-30T07:31:01;10.00;99.90
14000;DHT22;7075;53.574;10.054;2022-09-30T07:33:31;10.10;99.90
14000;DHT22;7075;53.574;10.054;2022-09-30T07:35:57;10.10;99.90
14000;DHT22;7075;53.574;10.054;2022-09-30T07:38:28;10.10;99.90
14000;DHT22;7075;53.574;10.054;2022-09-30T07:41:03;10.20;99.90
14000;DHT22;7075;53.574;10.054;2022-09-30T07:43:30;10.30;99.90
14000;DHT22;7075;53.574;10.054;2022-09-30T07:46:27;10.30;99.90
14000;DHT22;7075;53.574;10.054;2022-09-30T07:48:55;10.30;99.90
14000;DHT22;7075;53.574;10.054;2022-09-30T07:51:25;10.40;99.90
14000;DHT22;7075;53.574;10.054;2022-09-30T07:53:56;10.40;99.90
14000;DHT22;7075;53.574;10.054;2022-09-30T07:56:23;10.40;99.90
14000;DHT22;7075;53.574;10.054;2022-09-30T07:58:56;10.50;99.90
14000;DHT22;7075;53.574;10.054;2022-09-30T08:01:22;10.60;99.90
14000;DHT22;7075;53.574;10.054;2022-09-30T08:03:53;10.70;99.90
14000;DHT22;7075;53.574;10.054;2022-09-30T08:06:20;10.70;99.90
14000;DHT22;7075;53.574;10.054;2022-09-30T08:08:46;10.80;99.90
14000;DHT22;7075;53.574;10.054;2022-09-30T08:11:12;10.90;99.90
14000;DHT22;7075;53.574;10.054;2022-09-30T08:13:39;10.90;99.90
14000;DHT22;7075;53.574;10.054;2022-09-30T08:16:05;11.00;99.90
14000;DHT22;7075;53.574;10.054;2022-09-30T08:18:31;11.00;99.90
14000;DHT22;7075;53.574;10.054;2022-09-30T08:21:01;11.10;99.90
14000;DHT22;7075;53.574;10.054;2022-09-30T08:23:27;11.10;99.90
14000;DHT22;7075;53.574;10.054;2022-09-30T08:26:03;11.10;99.90
14000;DHT22;7075;53.574;10.054;2022-09-30T08:28:29;11.20;99.90
14000;DHT22;7075;53.574;10.054;2022-09-30T08:31:03;11.30;99.90
14000;DHT22;7075;53.574;10.054;2022-09-30T08:33:28;11.30;99.90
14000;DHT22;7075;53.574;10.054;2022-09-30T08:36:02;11.40;99.90
14000;DHT22;7075;53.574;10.054;2022-09-30T08:38:28;11.40;99.90
14000;DHT22;7075;53.574;10.054;2022-09-30T08:47:08;11.60;99.90
14000;DHT22;7075;53.574;10.054;2022-09-30T08:52:34;11.80;99.90
14000;DHT22;7075;53.574;10.054;2022-09-30T08:55:03;11.90;99.90
14000;DHT22;7075;53.574;10.054;2022-09-30T08:57:42;12.00;99.90
14000;DHT22;7075;53.574;10.054;2022-09-30T09:00:13;12.10;99.90
14000;DHT22;7075;53.574;10.054;2022-09-30T09:02:52;12.20;99.90
14000;DHT22;7075;53.574;10.054;2022-09-30T09:06:03;12.20;99.90
14000;DHT22;7075;53.574;10.054;2022-09-30T09:14:00;12.40;99.90
14000;DHT22;7075;53.574;10.054;2022-09-30T09:16:44;12.50;99.90
14000;DHT22;7075;53.574;10.054;2022-09-30T09:19:18;12.60;99.90
14000;DHT22;7075;53.574;10.054;2022-09-30T09:21:54;12.60;99.90
14000;DHT22;7075;53.574;10.054;2022-09-30T09:24:27;12.70;99.90
14000;DHT22;7075;53.574;10.054;2022-09-30T09:26:54;12.90;99.90
14000;DHT22;7075;53.574;10.054;2022-09-30T09:32:25;13.00;99.90
14000;DHT22;7075;53.574;10.054;2022-09-30T09:34:56;13.00;99.90
14000;DHT22;7075;53.574;10.054;2022-09-30T09:40:30;13.20;99.90
14000;DHT22;7075;53.574;10.054;2022-09-30T09:43:09;13.20;99.90
14000;DHT22;7075;53.574;10.054;2022-09-30T09:45:57;13.20;99.90
14000;DHT22;7075;53.574;10.054;2022-09-30T09:48:24;13.30;99.90
14000;DHT22;7075;53.574;10.054;2022-09-30T09:54:08;13.40;99.90
14000;DHT22;7075;53.574;10.054;2022-09-30T09:56:36;13.40;99.90
14000;DHT22;7075;53.574;10.054;2022-09-30T09:59:13;13.40;99.90
14000;DHT22;7075;53.574;10.054;2022-09-30T10:01:50;13.50;99.90
14000;DHT22;7075;53.574;10.054;2022-09-30T10:04:22;13.60;99.90
14000;DHT22;7075;53.574;10.054;2022-09-30T10:07:01;13.60;99.90
14000;DHT22;7075;53.574;10.054;2022-09-30T10:09:38;13.60;99.90
14000;DHT22;7075;53.574;10.054;2022-09-30T10:14:39;13.60;99.90
14000;DHT22;7075;53.574;10.054;2022-09-30T10:17:34;13.70;99.90
14000;DHT22;7075;53.574;10.054;2022-09-30T10:20:18;13.80;99.90
14000;DHT22;7075;53.574;10.054;2022-09-30T10:22:46;13.90;99.90
14000;DHT22;7075;53.574;10.054;2022-09-30T10:25:18;13.90;99.90
14000;DHT22;7075;53.574;10.054;2022-09-30T10:28:00;13.90;99.90
14000;DHT22;7075;53.574;10.054;2022-09-30T10:30:42;14.00;99.90
14000;DHT22;7075;53.574;10.054;2022-09-30T10:33:26;14.10;99.90
14000;DHT22;7075;53.574;10.054;2022-09-30T10:36:14;14.20;99.90
14000;DHT22;7075;53.574;10.054;2022-09-30T10:39:01;14.20;99.90
14000;DHT22;7075;53.574;10.054;2022-09-30T10:41:30;14.20;99.90
14000;DHT22;7075;53.574;10.054;2022-09-30T10:43:59;14.20;99.90
14000;DHT22;7075;53.574;10.054;2022-09-30T10:46:34;14.10;99.90
14000;DHT22;7075;53.574;10.054;2022-09-30T10:49:13;14.20;99.90
14000;DHT22;7075;53.574;10.054;2022-09-30T10:51:46;14.40;99.90
14000;DHT22;7075;53.574;10.054;2022-09-30T10:54:51;14.50;99.90
14000;DHT22;7075;53.574;10.054;2022-09-30T10:57:25;14.60;99.90
14000;DHT22;7075;53.574;10.054;2022-09-30T11:02:28;15.10;99.90
14000;DHT22;7075;53.574;10.054;2022-09-30T11:05:04;15.50;99.90
14000;DHT22;7075;53.574;10.054;2022-09-30T11:10:44;16.00;99.90
14000;DHT22;7075;53.574;10.054;2022-09-30T11:13:47;16.10;99.90
14000;DHT22;7075;53.574;10.054;2022-09-30T11:17:10;16.10;99.90
14000;DHT22;7075;53.574;10.054;2022-09-30T11:19:35;16.40;99.90
14000;DHT22;7075;53.574;10.054;2022-09-30T11:22:30;16.60;99.90
14000;DHT22;7075;53.574;10.054;2022-09-30T11:24:59;16.30;99.90
14000;DHT22;7075;53.574;10.054;2022-09-30T11:34:27;15.60;99.90
14000;DHT22;7075;53.574;10.054;2022-09-30T11:42:46;15.70;99.90
14000;DHT22;7075;53.574;10.054;2022-09-30T11:48:13;16.50;99.90
14000;DHT22;7075;53.574;10.054;2022-09-30T11:53:48;16.60;99.90
14000;DHT22;7075;53.574;10.054;2022-09-30T11:59:22;16.80;99.90
14000;DHT22;7075;53.574;10.054;2022-09-30T12:01:53;17.10;99.90
14000;DHT22;7075;53.574;10.054;2022-09-30T12:04:28;17.30;99.90
14000;DHT22;7075;53.574;10.054;2022-09-30T12:09:56;17.50;99.90
14000;DHT22;7075;53.574;10.054;2022-09-30T12:12:25;17.60;99.90
14000;DHT22;7075;53.574;10.054;2022-09-30T12:15:11;17.80;99.90
14000;DHT22;7075;53.574;10.054;2022-09-30T12:17:48;17.90;99.90
14000;DHT22;7075;53.574;10.054;2022-09-30T12:20:40;17.10;99.90
14000;DHT22;7075;53.574;10.054;2022-09-30T12:23:31;16.80;99.90
14000;DHT22;7075;53.574;10.054;2022-09-30T12:26:01;16.40;99.90
14000;DHT22;7075;53.574;10.054;2022-09-30T12:40:25;17.60;99.90
14000;DHT22;7075;53.574;10.054;2022-09-30T12:46:07;17.10;99.90
14000;DHT22;7075;53.574;10.054;2022-09-30T12:48:42;17.20;99.90
14000;DHT22;7075;53.574;10.054;2022-09-30T12:51:09;16.90;99.90
14000;DHT22;7075;53.574;10.054;2022-09-30T12:53:37;17.00;99.90
14000;DHT22;7075;53.574;10.054;2022-09-30T12:56:11;17.20;99.90
14000;DHT22;7075;53.574;10.054;2022-09-30T12:58:50;17.20;99.90
14000;DHT22;7075;53.574;10.054;2022-09-30T13:01:21;17.30;99.90
14000;DHT22;7075;53.574;10.054;2022-09-30T13:06:26;17.20;99.90
14000;DHT22;7075;53.574;10.054;2022-09-30T13:19:45;18.00;99.90
14000;DHT22;7075;53.574;10.054;2022-09-30T13:27:38;18.40;99.90
14000;DHT22;7075;53.574;10.054;2022-09-30T13:33:25;18.40;99.90
14000;DHT22;7075;53.574;10.054;2022-09-30T13:35:50;18.10;99.90
14000;DHT22;7075;53.574;10.054;2022-09-30T13:38:19;17.90;99.90
14000;DHT22;7075;53.574;10.054;2022-09-30T13:46:18;18.30;99.90
14000;DHT22;7075;53.574;10.054;2022-09-30T13:49:08;18.40;99.90
14000;DHT22;7075;53.574;10.054;2022-09-30T13:51:37;18.20;99.90
14000;DHT22;7075;53.574;10.054;2022-09-30T13:54:26;18.40;99.90
14000;DHT22;7075;53.574;10.054;2022-09-30T13:56:56;18.00;99.90
14000;DHT22;7075;53.574;10.054;2022-09-30T13:59:45;17.80;99.90
14000;DHT22;7075;53.574;10.054;2022-09-30T14:15:54;18.70;99.90
14000;DHT22;7075;53.574;10.054;2022-09-30T14:23:43;19.00;99.90
14000;DHT22;7075;53.574;10.054;2022-09-30T14:26:13;19.10;99.90
14000;DHT22;7075;53.574;10.054;2022-09-30T14:28:50;19.00;99.90
14000;DHT22;7075;53.574;10.054;2022-09-30T14:31:18;18.80;99.90
14000;DHT22;7075;53.574;10.054;2022-09-30T14:33:47;18.30;99.90
14000;DHT22;7075;53.574;10.054;2022-09-30T14:36:16;17.80;99.90
14000;DHT22;7075;53.574;10.054;2022-09-30T14:38:46;17.70;99.90
14000;DHT22;7075;53.574;10.054;2022-09-30T14:41:21;17.70;99.90
14000;DHT22;7075;53.574;10.054;2022-09-30T14:43:51;17.60;99.90
14000;DHT22;7075;53.574;10.054;2022-09-30T14:46:36;17.60;99.90
14000;DHT22;7075;53.574;10.054;2022-09-30T14:49:05;17.80;99.90
14000;DHT22;7075;53.574;10.054;2022-09-30T14:51:40;18.00;99.90
14000;DHT22;7075;53.574;10.054;2022-09-30T14:54:25;18.00;99.90
14000;DHT22;7075;53.574;10.054;2022-09-30T14:56:53;17.80;99.90
14000;DHT22;7075;53.574;10.054;2022-09-30T15:01:50;17.70;99.90
14000;DHT22;7075;53.574;10.054;2022-09-30T15:04:26;17.70;99.90
14000;DHT22;7075;53.574;10.054;2022-09-30T15:06:53;17.70;99.90
14000;DHT22;7075;53.574;10.054;2022-09-30T15:09:34;17.60;99.90
14000;DHT22;7075;53.574;10.054;2022-09-30T15:12:17;17.50;99.90
14000;DHT22;7075;53.574;10.054;2022-09-30T15:14:57;17.40;99.90
14000;DHT22;7075;53.574;10.054;2022-09-30T15:17:28;17.20;99.90
14000;DHT22;7075;53.574;10.054;2022-09-30T15:19:57;17.00;99.90
14000;DHT22;7075;53.574;10.054;2022-09-30T15:22:24;17.00;99.90
14000;DHT22;7075;53.574;10.054;2022-09-30T15:24:51;17.10;99.90
14000;DHT22;7075;53.574;10.054;2022-09-30T15:27:30;17.10;99.90
14000;DHT22;7075;53.574;10.054;2022-09-30T15:30:21;17.10;99.90
14000;DHT22;7075;53.574;10.054;2022-09-30T15:32:47;16.90;99.90
14000;DHT22;7075;53.574;10.054;2022-09-30T15:35:18;17.00;99.90
14000;DHT22;7075;53.574;10.054;2022-09-30T15:37:46;16.90;99.90
14000;DHT22;7075;53.574;10.054;2022-09-30T15:40:23;16.90;99.90
14000;DHT22;7075;53.574;10.054;2022-09-30T15:43:09;17.00;99.90
14000;DHT22;7075;53.574;10.054;2022-09-30T15:45:37;16.90;99.90
14000;DHT22;7075;53.574;10.054;2022-09-30T15:50:51;16.80;99.90
14000;DHT22;7075;53.574;10.054;2022-09-30T15:53:29;16.80;99.90
14000;DHT22;7075;53.574;10.054;2022-09-30T15:56:14;16.70;99.90
14000;DHT22;7075;53.574;10.054;2022-09-30T15:58:58;16.60;99.90
14000;DHT22;7075;53.574;10.054;2022-09-30T16:09:27;16.60;99.90
14000;DHT22;7075;53.574;10.054;2022-09-30T16:12:06;16.60;99.90
14000;DHT22;7075;53.574;10.054;2022-09-30T16:14:44;16.60;99.90
14000;DHT22;7075;53.574;10.054;2022-09-30T16:17:26;16.50;99.90
14000;DHT22;7075;53.574;10.054;2022-09-30T16:19:54;16.60;99.90
14000;DHT22;7075;53.574;10.054;2022-09-30T16:25:27;16.50;99.90
14000;DHT22;7075;53.574;10.054;2022-09-30T16:28:00;16.40;99.90
14000;DHT22;7075;53.574;10.054;2022-09-30T16:30:28;16.40;99.90
14000;DHT22;7075;53.574;10.054;2022-09-30T16:32:58;16.30;99.90
14000;DHT22;7075;53.574;10.054;2022-09-30T16:35:27;16.20;99.90
14000;DHT22;7075;53.574;10.054;2022-09-30T16:38:02;16.20;99.90
14000;DHT22;7075;53.574;10.054;2022-09-30T16:40:29;16.20;99.90
14000;DHT22;7075;53.574;10.054;2022-09-30T16:42:55;16.10;99.90
14000;DHT22;7075;53.574;10.054;2022-09-30T16:45:24;16.10;99.90
14000;DHT22;7075;53.574;10.054;2022-09-30T16:47:50;16.10;99.90
14000;DHT22;7075;53.574;10.054;2022-09-30T16:50:35;16.00;99.90
14000;DHT22;7075;53.574;10.054;2022-09-30T16:53:02;16.00;99.90
14000;DHT22;7075;53.574;10.054;2022-09-30T16:55:28;16.00;99.90
14000;DHT22;7075;53.574;10.054;2022-09-30T16:57:56;16.00;99.90
14000;DHT22;7075;53.574;10.054;2022-09-30T17:00:23;16.00;99.90
14000;DHT22;7075;53.574;10.054;2022-09-30T17:02:49;16.00;99.90
14000;DHT22;7075;53.574;10.054;2022-09-30T17:05:17;15.90;99.90
14000;DHT22;7075;53.574;10.054;2022-09-30T17:07:49;15.80;99.90
14000;DHT22;7075;53.574;10.054;2022-09-30T17:10:19;15.90;99.90
14000;DHT22;7075;53.574;10.054;2022-09-30T17:12:45;15.90;99.90
14000;DHT22;7075;53.574;10.054;2022-09-30T17:15:11;16.00;99.90
14000;DHT22;7075;53.574;10.054;2022-09-30T17:17:37;15.90;99.90
14000;DHT22;7075;53.574;10.054;2022-09-30T17:20:03;15.90;99.90
14000;DHT22;7075;53.574;10.054;2022-09-30T17:22:28;15.90;99.90
14000;DHT22;7075;53.574;10.054;2022-09-30T17:24:54;15.90;99.90
14000;DHT22;7075;53.574;10.054;2022-09-30T17:27:20;16.00;99.90
14000;DHT22;7075;53.574;10.054;2022-09-30T17:29:45;15.90;99.90
14000;DHT22;7075;53.574;10.054;2022-09-30T17:32:11;15.80;99.90
14000;DHT22;7075;53.574;10.054;2022-09-30T17:34:36;15.80;99.90
14000;DHT22;7075;53.574;10.054;2022-09-30T17:37:02;15.70;99.90
14000;DHT22;7075;53.574;10.054;2022-09-30T17:39:27;15.70;99.90
14000;DHT22;7075;53.574;10.054;2022-09-30T17:41:53;15.60;99.90
14000;DHT22;7075;53.574;10.054;2022-09-30T17:44:37;15.50;99.90
14000;DHT22;7075;53.574;10.054;2022-09-30T17:47:03;15.50;99.90
14000;DHT22;7075;53.574;10.054;2022-09-30T17:49:34;15.30;99.90
14000;DHT22;7075;53.574;10.054;2022-09-30T17:52:00;15.30;99.90
14000;DHT22;7075;53.574;10.054;2022-09-30T17:54:27;15.30;99.90
14000;DHT22;7075;53.574;10.054;2022-09-30T17:56:53;15.40;99.90
14000;DHT22;7075;53.574;10.054;2022-09-30T17:59:19;15.40;99.90
14000;DHT22;7075;53.574;10.054;2022-09-30T18:01:49;15.40;99.90
14000;DHT22;7075;53.574;10.054;2022-09-30T18:04:15;15.30;99.90
14000;DHT22;7075;53.574;10.054;2022-09-30T18:06:41;15.20;99.90
14000;DHT22;7075;53.574;10.054;2022-09-30T18:09:07;15.30;99.90
14000;DHT22;7075;53.574;10.054;2022-09-30T18:11:33;15.30;99.90
14000;DHT22;7075;53.574;10.054;2022-09-30T18:13:59;15.20;99.90
14000;DHT22;7075;53.574;10.054;2022-09-30T18:16:30;15.20;99.90
14000;DHT22;7075;53.574;10.054;2022-09-30T18:18:59;15.20;99.90
14000;DHT22;7075;53.574;10.054;2022-09-30T18:21:26;15.10;99.90
14000;DHT22;7075;53.574;10.054;2022-09-30T18:23:52;15.10;99.90
14000;DHT22;7075;53.574;10.054;2022-09-30T18:26:19;15.10;99.90
14000;DHT22;7075;53.574;10.054;2022-09-30T18:28:47;15.00;99.90
14000;DHT22;7075;53.574;10.054;2022-09-30T18:31:15;14.90;99.90
14000;DHT22;7075;53.574;10.054;2022-09-30T18:33:51;14.90;99.90
14000;DHT22;7075;53.574;10.054;2022-09-30T18:36:16;14.90;99.90
14000;DHT22;7075;53.574;10.054;2022-09-30T18:38:42;14.80;99.90
14000;DHT22;7075;53.574;10.054;2022-09-30T18:41:07;14.70;99.90
14000;DHT22;7075;53.574;10.054;2022-09-30T18:43:33;14.70;99.90
14000;DHT22;7075;53.574;10.054;2022-09-30T18:45:59;14.60;99.90
14000;DHT22;7075;53.574;10.054;2022-09-30T18:48:26;14.50;99.90
14000;DHT22;7075;53.574;10.054;2022-09-30T18:50:52;14.50;99.90
14000;DHT22;7075;53.574;10.054;2022-09-30T18:53:19;14.50;99.90
14000;DHT22;7075;53.574;10.054;2022-09-30T18:55:45;14.50;99.90
14000;DHT22;7075;53.574;10.054;2022-09-30T18:58:11;14.50;99.90
14000;DHT22;7075;53.574;10.054;2022-09-30T19:00:37;14.50;99.90
14000;DHT22;7075;53.574;10.054;2022-09-30T19:03:03;14.50;99.90
14000;DHT22;7075;53.574;10.054;2022-09-30T19:05:29;14.50;99.90